sensor_id;sensor_type;location;lat;lon;timestamp;pressure;altitude;pressure_sealevel;temperature;humidity
55068;BME280;40965;52.368;9.712;2023-05-11T00:00:44;100665.25;;;13.04;100.00
55068;BME280;40965;52.368;9.712;2023-05-11T00:03:10;100663.56;;;13.00;100.00
55068;BME280;40965;52.368;9.712;2023-05-11T00:05:37;100660.16;;;12.95;100.00
55068;BME280;40965;52.368;9.712;2023-05-11T00:08:03;100661.94;;;12.93;100.00
55068;BME280;40965;52.368;9.712;2023-05-11T00:10:30;100667.28;;;12.89;100.00
55068;BME280;40965;52.368;9.712;2023-05-11T00:12:56;100665.59;;;12.84;100.00
55068;BME280;40965;52.368;9.712;2023-05-11T00:15:23;100663.97;;;12.78;100.00
55068;BME280;40965;52.368;9.712;2023-05-11T00:17:49;100666.63;;;12.77;100.00
55068;BME280;40965;52.368;9.712;2023-05-11T00:20:16;100656.19;;;12.72;100.00
55068;BME280;40965;52.368;9.712;2023-05-11T00:22:43;100662.34;;;12.69;100.00
55068;BME280;40965;52.368;9.712;2023-05-11T00:25:09;100664.97;;;12.69;100.00
55068;BME280;40965;52.368;9.712;2023-05-11T00:27:36;100667.56;;;12.71;100.00
55068;BME280;40965;52.368;9.712;2023-05-11T00:30:02;100664.94;;;12.71;100.00
55068;BME280;40965;52.368;9.712;2023-05-11T00:32:29;100663.25;;;12.68;100.00
55068;BME280;40965;52.368;9.712;2023-05-11T00:34:55;100661.53;;;12.67;100.00
55068;BME280;40965;52.368;9.712;2023-05-11T00:37:22;100666.78;;;12.67;100.00
55068;BME280;40965;52.368;9.712;2023-05-11T00:39:48;100664.16;;;12.67;100.00
55068;BME280;40965;52.368;9.712;2023-05-11T00:42:15;100662.41;;;12.66;100.00
55068;BME280;40965;52.368;9.712;2023-05-11T00:44:42;100659.78;;;12.66;100.00
55068;BME280;40965;52.368;9.712;2023-05-11T00:47:08;100665.97;;;12.64;100.00
55068;BME280;40965;52.368;9.712;2023-05-11T00:49:35;100659.81;;;12.63;100.00
55068;BME280;40965;52.368;9.712;2023-05-11T00:52:01;100666.00;;;12.62;100.00
55068;BME280;40965;52.368;9.712;2023-05-11T00:54:28;100664.22;;;12.63;100.00
55068;BME280;40965;52.368;9.712;2023-05-11T00:56:55;100669.47;;;12.63;100.00
55068;BME280;40965;52.368;9.712;2023-05-11T00:59:22;100669.50;;;12.61;100.00
55068;BME280;40965;52.368;9.712;2023-05-11T01:01:49;100668.66;;;12.61;100.00
55068;BME280;40965;52.368;9.712;2023-05-11T01:04:15;100670.38;;;12.62;100.00
55068;BME280;40965;52.368;9.712;2023-05-11T01:06:56;100672.19;;;12.58;100.00
55068;BME280;40965;52.368;9.712;2023-05-11T01:12:39;100671.34;;;12.56;100.00
55068;BME280;40965;52.368;9.712;2023-05-11T01:15:39;100668.78;;;12.51;100.00
55068;BME280;40965;52.368;9.712;2023-05-11T01:18:37;100673.22;;;12.49;100.00
55068;BME280;40965;52.368;9.712;2023-05-11T01:21:07;100674.09;;;12.48;100.00
55068;BME280;40965;52.368;9.712;2023-05-11T01:24:25;100674.22;;;12.40;100.00
55068;BME280;40965;52.368;9.712;2023-05-11T01:27:22;100672.59;;;12.32;100.00
55068;BME280;40965;52.368;9.712;2023-05-11T01:30:25;100675.34;;;12.26;100.00
55068;BME280;40965;52.368;9.712;2023-05-11T01:32:57;100670.13;;;12.22;100.00
55068;BME280;40965;52.368;9.712;2023-05-11T01:35:25;100674.53;;;12.19;100.00
55068;BME280;40965;52.368;9.712;2023-05-11T01:37:56;100672.84;;;12.18;100.00
55068;BME280;40965;52.368;9.712;2023-05-11T01:40:27;100677.19;;;12.17;100.00
55068;BME280;40965;52.368;9.712;2023-05-11T01:43:03;100679.00;;;12.15;100.00
55068;BME280;40965;52.368;9.712;2023-05-11T01:45:33;100677.28;;;12.13;100.00
55068;BME280;40965;52.368;9.712;2023-05-11T01:48:04;100676.41;;;12.12;100.00
55068;BME280;40965;52.368;9.712;2023-05-11T01:50:33;100681.66;;;12.12;100.00
55068;BME280;40965;52.368;9.712;2023-05-11T01:53:01;100679.94;;;12.10;100.00
55068;BME280;40965;52.368;9.712;2023-05-11T01:55:31;100676.47;;;12.09;100.00
55068;BME280;40965;52.368;9.712;2023-05-11T01:58:01;100680.00;;;12.06;100.00
55068;BME280;40965;52.368;9.712;2023-05-11T02:00:30;100679.09;;;12.07;100.00
55068;BME280;40965;52.368;9.712;2023-05-11T02:02:59;100680.84;;;12.07;100.00
55068;BME280;40965;52.368;9.712;2023-05-11T02:05:28;100683.44;;;12.10;100.00
55068;BME280;40965;52.368;9.712;2023-05-11T02:07:57;100679.97;;;12.08;100.00
55068;BME280;40965;52.368;9.712;2023-05-11T02:10:25;100684.31;;;12.09;100.00
55068;BME280;40965;52.368;9.712;2023-05-11T02:12:53;100681.72;;;12.07;100.00
55068;BME280;40965;52.368;9.712;2023-05-11T02:15:21;100679.13;;;12.06;100.00
55068;BME280;40965;52.368;9.712;2023-05-11T02:17:50;100682.63;;;12.06;100.00
55068;BME280;40965;52.368;9.712;2023-05-11T02:20:17;100681.72;;;12.07;100.00
55068;BME280;40965;52.368;9.712;2023-05-11T02:22:45;100682.63;;;12.06;100.00
55068;BME280;40965;52.368;9.712;2023-05-11T02:25:12;100682.63;;;12.06;100.00
55068;BME280;40965;52.368;9.712;2023-05-11T02:27:40;100683.50;;;12.05;100.00
55068;BME280;40965;52.368;9.712;2023-05-11T02:30:07;100687.88;;;12.06;100.00
55068;BME280;40965;52.368;9.712;2023-05-11T02:32:36;100692.25;;;12.06;100.00
55068;BME280;40965;52.368;9.712;2023-05-11T02:35:11;100690.53;;;12.05;100.00
55068;BME280;40965;52.368;9.712;2023-05-11T02:37:44;100686.19;;;12.02;100.00
55068;BME280;40965;52.368;9.712;2023-05-11T02:40:16;100698.38;;;12.05;100.00
55068;BME280;40965;52.368;9.712;2023-05-11T02:42:44;100686.19;;;12.02;100.00
55068;BME280;40965;52.368;9.712;2023-05-11T02:45:14;100688.81;;;12.02;100.00
55068;BME280;40965;52.368;9.712;2023-05-11T02:47:46;100688.81;;;12.02;100.00
55068;BME280;40965;52.368;9.712;2023-05-11T02:50:17;100687.06;;;12.01;100.00
55068;BME280;40965;52.368;9.712;2023-05-11T02:52:46;100684.41;;;12.03;100.00
55068;BME280;40965;52.368;9.712;2023-05-11T02:55:15;100687.00;;;12.04;100.00
55068;BME280;40965;52.368;9.712;2023-05-11T02:57:43;100687.88;;;12.06;100.00
55068;BME280;40965;52.368;9.712;2023-05-11T03:00:10;100686.09;;;12.07;100.00
55068;BME280;40965;52.368;9.712;2023-05-11T03:02:37;100694.84;;;12.07;100.00
55068;BME280;40965;52.368;9.712;2023-05-11T03:05:04;100690.44;;;12.10;100.00
55068;BME280;40965;52.368;9.712;2023-05-11T03:07:32;100689.56;;;12.11;100.00
55068;BME280;40965;52.368;9.712;2023-05-11T03:10:01;100691.28;;;12.12;100.00
55068;BME280;40965;52.368;9.712;2023-05-11T03:12:29;100690.44;;;12.11;100.00
55068;BME280;40965;52.368;9.712;2023-05-11T03:14:59;100687.81;;;12.11;100.00
55068;BME280;40965;52.368;9.712;2023-05-11T03:17:27;100696.56;;;12.10;100.00
55068;BME280;40965;52.368;9.712;2023-05-11T03:19:55;100686.94;;;12.09;100.00
55068;BME280;40965;52.368;9.712;2023-05-11T03:22:24;100689.56;;;12.09;100.00
55068;BME280;40965;52.368;9.712;2023-05-11T03:24:52;100697.38;;;12.12;100.00
55068;BME280;40965;52.368;9.712;2023-05-11T03:27:19;100689.53;;;12.12;100.00
55068;BME280;40965;52.368;9.712;2023-05-11T03:29:47;100689.53;;;12.12;100.00
55068;BME280;40965;52.368;9.712;2023-05-11T03:32:14;100693.00;;;12.14;100.00
55068;BME280;40965;52.368;9.712;2023-05-11T03:34:40;100693.84;;;12.15;100.00
55068;BME280;40965;52.368;9.712;2023-05-11T03:37:09;100687.72;;;12.16;100.00
55068;BME280;40965;52.368;9.712;2023-05-11T03:39:38;100689.47;;;12.17;100.00
55068;BME280;40965;52.368;9.712;2023-05-11T03:42:07;100688.59;;;12.15;100.00
55068;BME280;40965;52.368;9.712;2023-05-11T03:44:34;100686.91;;;12.14;100.00
55068;BME280;40965;52.368;9.712;2023-05-11T03:47:02;100688.63;;;12.13;100.00
55068;BME280;40965;52.368;9.712;2023-05-11T03:49:29;100686.00;;;12.13;100.00
55068;BME280;40965;52.368;9.712;2023-05-11T03:51:56;100691.22;;;12.15;100.00
55068;BME280;40965;52.368;9.712;2023-05-11T03:54:23;100683.38;;;12.15;100.00
55068;BME280;40965;52.368;9.712;2023-05-11T03:56:50;100680.72;;;12.18;100.00
55068;BME280;40965;52.368;9.712;2023-05-11T03:59:17;100683.34;;;12.18;100.00
55068;BME280;40965;52.368;9.712;2023-05-11T04:01:43;100686.75;;;12.21;100.00
55068;BME280;40965;52.368;9.712;2023-05-11T04:04:10;100686.75;;;12.23;100.00
55068;BME280;40965;52.368;9.712;2023-05-11T04:06:36;100687.59;;;12.23;100.00
55068;BME280;40965;52.368;9.712;2023-05-11T04:09:05;100685.84;;;12.26;100.00
55068;BME280;40965;52.368;9.712;2023-05-11T04:11:35;100688.47;;;12.26;100.00
55068;BME280;40965;52.368;9.712;2023-05-11T04:14:02;100683.22;;;12.26;100.00
55068;BME280;40965;52.368;9.712;2023-05-11T04:16:29;100685.78;;;12.29;100.00
55068;BME280;40965;52.368;9.712;2023-05-11T04:18:58;100684.00;;;12.32;100.00
55068;BME280;40965;52.368;9.712;2023-05-11T04:21:25;100689.22;;;12.34;100.00
55068;BME280;40965;52.368;9.712;2023-05-11T04:23:52;100690.94;;;12.35;100.00
55068;BME280;40965;52.368;9.712;2023-05-11T04:26:19;100684.81;;;12.36;100.00
55068;BME280;40965;52.368;9.712;2023-05-11T04:28:46;100691.78;;;12.38;100.00
55068;BME280;40965;52.368;9.712;2023-05-11T04:31:13;100692.59;;;12.40;100.00
55068;BME280;40965;52.368;9.712;2023-05-11T04:33:45;100689.03;;;12.45;100.00
55068;BME280;40965;52.368;9.712;2023-05-11T04:36:11;100690.72;;;12.47;100.00
55068;BME280;40965;52.368;9.712;2023-05-11T04:38:40;100684.63;;;12.47;100.00
55068;BME280;40965;52.368;9.712;2023-05-11T04:41:09;100688.06;;;12.49;100.00
55068;BME280;40965;52.368;9.712;2023-05-11T04:43:35;100695.09;;;12.48;100.00
55068;BME280;40965;52.368;9.712;2023-05-11T04:46:05;100698.63;;;12.47;100.00
55068;BME280;40965;52.368;9.712;2023-05-11T04:48:31;100695.97;;;12.49;100.00
55068;BME280;40965;52.368;9.712;2023-05-11T04:50:58;100695.94;;;12.52;100.00
55068;BME280;40965;52.368;9.712;2023-05-11T04:53:25;100690.59;;;12.55;100.00
55068;BME280;40965;52.368;9.712;2023-05-11T04:55:52;100696.81;;;12.51;100.00
55068;BME280;40965;52.368;9.712;2023-05-11T04:58:18;100700.34;;;12.48;100.00
55068;BME280;40965;52.368;9.712;2023-05-11T05:00:45;100694.16;;;12.52;100.00
55068;BME280;40965;52.368;9.712;2023-05-11T05:03:12;100698.47;;;12.58;100.00
55068;BME280;40965;52.368;9.712;2023-05-11T05:05:39;100705.34;;;12.64;100.00
55068;BME280;40965;52.368;9.712;2023-05-11T05:08:05;100703.53;;;12.69;100.00
55068;BME280;40965;52.368;9.712;2023-05-11T05:10:32;100705.19;;;12.73;100.00
55068;BME280;40965;52.368;9.712;2023-05-11T05:12:59;100710.41;;;12.74;100.00
55068;BME280;40965;52.368;9.712;2023-05-11T05:15:25;100706.84;;;12.79;100.00
55068;BME280;40965;52.368;9.712;2023-05-11T05:17:52;100714.63;;;12.85;100.00
55068;BME280;40965;52.368;9.712;2023-05-11T05:20:18;100711.94;;;12.88;100.00
55068;BME280;40965;52.368;9.712;2023-05-11T05:22:45;100710.19;;;12.88;100.00
55068;BME280;40965;52.368;9.712;2023-05-11T05:25:11;100709.25;;;12.93;100.00
55068;BME280;40965;52.368;9.712;2023-05-11T05:27:38;100713.53;;;12.97;100.00
55068;BME280;40965;52.368;9.712;2023-05-11T05:30:05;100715.22;;;13.01;100.00
55068;BME280;40965;52.368;9.712;2023-05-11T05:32:32;100711.72;;;13.00;100.00
55068;BME280;40965;52.368;9.712;2023-05-11T05:34:59;100714.34;;;13.00;100.00
55068;BME280;40965;52.368;9.712;2023-05-11T05:37:25;100720.38;;;13.07;100.00
55068;BME280;40965;52.368;9.712;2023-05-11T05:39:52;100719.47;;;13.08;100.00
55068;BME280;40965;52.368;9.712;2023-05-11T05:42:18;100722.00;;;13.14;100.00
55068;BME280;40965;52.368;9.712;2023-05-11T05:44:46;100718.31;;;13.24;100.00
55068;BME280;40965;52.368;9.712;2023-05-11T05:47:13;100726.97;;;13.30;100.00
55068;BME280;40965;52.368;9.712;2023-05-11T05:49:40;100729.59;;;13.28;100.00
55068;BME280;40965;52.368;9.712;2023-05-11T05:52:12;100734.06;;;13.24;100.00
55068;BME280;40965;52.368;9.712;2023-05-11T05:54:40;100732.28;;;13.27;100.00
55068;BME280;40965;52.368;9.712;2023-05-11T05:57:06;100733.16;;;13.27;100.00
55068;BME280;40965;52.368;9.712;2023-05-11T05:59:33;100735.78;;;13.27;100.00
55068;BME280;40965;52.368;9.712;2023-05-11T06:02:00;100740.91;;;13.33;100.00
55068;BME280;40965;52.368;9.712;2023-05-11T06:04:27;100737.34;;;13.36;100.00
55068;BME280;40965;52.368;9.712;2023-05-11T06:06:55;100743.53;;;13.33;100.00
55068;BME280;40965;52.368;9.712;2023-05-11T06:09:24;100746.13;;;13.35;100.00
55068;BME280;40965;52.368;9.712;2023-05-11T06:11:50;100742.59;;;13.37;100.00
55068;BME280;40965;52.368;9.712;2023-05-11T06:14:18;100739.97;;;13.39;100.00
55068;BME280;40965;52.368;9.712;2023-05-11T06:16:47;100744.31;;;13.42;100.00
55068;BME280;40965;52.368;9.712;2023-05-11T06:19:14;100746.78;;;13.49;100.00
55068;BME280;40965;52.368;9.712;2023-05-11T06:21:40;100759.97;;;13.46;100.00
55068;BME280;40965;52.368;9.712;2023-05-11T06:24:09;100748.69;;;13.41;100.00
55068;BME280;40965;52.368;9.712;2023-05-11T06:26:35;100747.88;;;13.39;100.00
55068;BME280;40965;52.368;9.712;2023-05-11T06:29:02;100747.94;;;13.33;100.00
55068;BME280;40965;52.368;9.712;2023-05-11T06:31:28;100740.94;;;13.32;100.00
55068;BME280;40965;52.368;9.712;2023-05-11T06:33:55;100745.38;;;13.28;100.00
55068;BME280;40965;52.368;9.712;2023-05-11T06:36:21;100743.66;;;13.27;100.00
55068;BME280;40965;52.368;9.712;2023-05-11T06:38:48;100747.03;;;13.32;100.00
55068;BME280;40965;52.368;9.712;2023-05-11T06:41:15;100744.31;;;13.40;100.00
55068;BME280;40965;52.368;9.712;2023-05-11T06:43:42;100750.34;;;13.45;100.00
55068;BME280;40965;52.368;9.712;2023-05-11T06:46:08;100745.97;;;13.46;100.00
55068;BME280;40965;52.368;9.712;2023-05-11T06:48:40;100745.00;;;13.50;100.00
55068;BME280;40965;52.368;9.712;2023-05-11T06:51:10;100746.72;;;13.52;100.00
55068;BME280;40965;52.368;9.712;2023-05-11T06:53:37;100742.28;;;13.54;100.00
55068;BME280;40965;52.368;9.712;2023-05-11T06:56:04;100740.56;;;13.53;100.00
55068;BME280;40965;52.368;9.712;2023-05-11T06:58:31;100741.38;;;13.55;100.00
55068;BME280;40965;52.368;9.712;2023-05-11T07:00:57;100758.00;;;13.57;100.00
55068;BME280;40965;52.368;9.712;2023-05-11T07:03:24;100743.06;;;13.60;100.00
55068;BME280;40965;52.368;9.712;2023-05-11T07:05:50;100753.50;;;13.64;100.00
55068;BME280;40965;52.368;9.712;2023-05-11T07:08:17;100746.56;;;13.60;100.00
55068;BME280;40965;52.368;9.712;2023-05-11T07:10:44;100743.94;;;13.60;100.00
55068;BME280;40965;52.368;9.712;2023-05-11T07:13:11;100747.53;;;13.56;100.00
55068;BME280;40965;52.368;9.712;2023-05-11T07:15:38;100751.13;;;13.50;100.00
55068;BME280;40965;52.368;9.712;2023-05-11T07:18:04;100751.22;;;13.46;100.00
55068;BME280;40965;52.368;9.712;2023-05-11T07:20:31;100742.59;;;13.39;100.00
55068;BME280;40965;52.368;9.712;2023-05-11T07:23:00;100752.22;;;13.38;100.00
55068;BME280;40965;52.368;9.712;2023-05-11T07:25:27;100753.13;;;13.36;100.00
55068;BME280;40965;52.368;9.712;2023-05-11T07:27:54;100752.28;;;13.37;100.00
55068;BME280;40965;52.368;9.712;2023-05-11T07:30:21;100746.09;;;13.39;100.00
55068;BME280;40965;52.368;9.712;2023-05-11T07:32:48;100745.97;;;13.46;100.00
55068;BME280;40965;52.368;9.712;2023-05-11T07:35:14;100752.00;;;13.51;100.00
55068;BME280;40965;52.368;9.712;2023-05-11T07:37:41;100752.78;;;13.56;100.00
55068;BME280;40965;52.368;9.712;2023-05-11T07:40:08;100747.53;;;13.56;100.00
55068;BME280;40965;52.368;9.712;2023-05-11T07:42:35;100753.53;;;13.63;100.00
55068;BME280;40965;52.368;9.712;2023-05-11T07:45:01;100749.94;;;13.67;100.00
55068;BME280;40965;52.368;9.712;2023-05-11T07:47:28;100749.00;;;13.69;100.00
55068;BME280;40965;52.368;9.712;2023-05-11T07:49:55;100759.47;;;13.72;100.00
55068;BME280;40965;52.368;9.712;2023-05-11T07:52:24;100753.22;;;13.78;100.00
55068;BME280;40965;52.368;9.712;2023-05-11T07:54:51;100759.19;;;13.86;100.00
55068;BME280;40965;52.368;9.712;2023-05-11T07:57:18;100760.03;;;13.87;100.00
55068;BME280;40965;52.368;9.712;2023-05-11T07:59:45;100761.81;;;13.86;100.00
55068;BME280;40965;52.368;9.712;2023-05-11T08:02:12;100763.59;;;13.84;100.00
55068;BME280;40965;52.368;9.712;2023-05-11T08:04:39;100762.91;;;13.76;100.00
55068;BME280;40965;52.368;9.712;2023-05-11T08:07:07;100756.78;;;13.76;100.00
55068;BME280;40965;52.368;9.712;2023-05-11T08:09:34;100762.94;;;13.75;100.00
55068;BME280;40965;52.368;9.712;2023-05-11T08:12:01;100764.63;;;13.77;100.00
55068;BME280;40965;52.368;9.712;2023-05-11T08:14:28;100762.13;;;13.71;100.00
55068;BME280;40965;52.368;9.712;2023-05-11T08:16:54;100770.16;;;13.63;100.00
55068;BME280;40965;52.368;9.712;2023-05-11T08:19:21;100764.97;;;13.60;100.00
55068;BME280;40965;52.368;9.712;2023-05-11T08:21:47;100767.59;;;13.60;100.00
55068;BME280;40965;52.368;9.712;2023-05-11T08:24:14;100758.84;;;13.60;100.00
55068;BME280;40965;52.368;9.712;2023-05-11T08:26:40;100769.34;;;13.60;100.00
55068;BME280;40965;52.368;9.712;2023-05-11T08:29:07;100778.94;;;13.64;100.00
55068;BME280;40965;52.368;9.712;2023-05-11T08:31:33;100767.50;;;13.65;100.00
55068;BME280;40965;52.368;9.712;2023-05-11T08:34:15;100770.91;;;13.71;100.00
55068;BME280;40965;52.368;9.712;2023-05-11T08:36:43;100771.63;;;13.78;100.00
55068;BME280;40965;52.368;9.712;2023-05-11T08:39:09;100774.06;;;13.87;100.00
55068;BME280;40965;52.368;9.712;2023-05-11T08:41:36;100773.19;;;13.88;100.00
55068;BME280;40965;52.368;9.712;2023-05-11T08:44:03;100760.88;;;13.89;100.00
55068;BME280;40965;52.368;9.712;2023-05-11T08:46:34;100772.38;;;13.85;100.00
55068;BME280;40965;52.368;9.712;2023-05-11T08:49:01;100770.63;;;13.84;100.00
55068;BME280;40965;52.368;9.712;2023-05-11T08:51:28;100770.63;;;13.84;100.00
55068;BME280;40965;52.368;9.712;2023-05-11T08:53:54;100768.09;;;13.79;100.00
55068;BME280;40965;52.368;9.712;2023-05-11T08:56:25;100771.56;;;13.81;100.00
55068;BME280;40965;52.368;9.712;2023-05-11T08:58:53;100775.13;;;13.79;100.00
55068;BME280;40965;52.368;9.712;2023-05-11T09:01:21;100771.72;;;13.73;100.00
55068;BME280;40965;52.368;9.712;2023-05-11T09:03:49;100775.28;;;13.71;100.00
55068;BME280;40965;52.368;9.712;2023-05-11T09:06:18;100769.13;;;13.72;100.00
55068;BME280;40965;52.368;9.712;2023-05-11T09:08:47;100775.28;;;13.71;100.00
55068;BME280;40965;52.368;9.712;2023-05-11T09:11:13;100774.31;;;13.75;100.00
55068;BME280;40965;52.368;9.712;2023-05-11T09:13:40;100778.66;;;13.78;100.00
55068;BME280;40965;52.368;9.712;2023-05-11T09:16:07;100768.13;;;13.78;100.00
55068;BME280;40965;52.368;9.712;2023-05-11T09:18:33;100779.50;;;13.80;100.00
55068;BME280;40965;52.368;9.712;2023-05-11T09:21:00;100769.66;;;13.88;100.00
55068;BME280;40965;52.368;9.712;2023-05-11T09:23:27;100773.19;;;13.88;100.00
55068;BME280;40965;52.368;9.712;2023-05-11T09:25:53;100774.00;;;13.90;100.00
55068;BME280;40965;52.368;9.712;2023-05-11T09:28:24;100773.16;;;13.90;100.00
55068;BME280;40965;52.368;9.712;2023-05-11T09:30:52;100773.13;;;13.92;100.00
55068;BME280;40965;52.368;9.712;2023-05-11T09:33:24;100774.75;;;13.97;100.00
55068;BME280;40965;52.368;9.712;2023-05-11T09:35:52;100772.03;;;14.02;100.00
55068;BME280;40965;52.368;9.712;2023-05-11T09:38:20;100765.88;;;14.03;100.00
55068;BME280;40965;52.368;9.712;2023-05-11T09:40:53;100772.06;;;14.00;100.00
55068;BME280;40965;52.368;9.712;2023-05-11T09:43:31;100774.03;;;13.89;100.00
55068;BME280;40965;52.368;9.712;2023-05-11T09:45:59;100782.94;;;13.83;100.00
55068;BME280;40965;52.368;9.712;2023-05-11T09:48:31;100777.75;;;13.79;100.00
55068;BME280;40965;52.368;9.712;2023-05-11T09:51:06;100781.31;;;13.76;100.00
55068;BME280;40965;52.368;9.712;2023-05-11T09:53:42;100775.91;;;13.84;100.00
55068;BME280;40965;52.368;9.712;2023-05-11T09:56:15;100778.41;;;13.90;100.00
55068;BME280;40965;52.368;9.712;2023-05-11T09:58:51;100770.47;;;13.92;100.00
55068;BME280;40965;52.368;9.712;2023-05-11T10:01:31;100772.91;;;14.01;100.00
55068;BME280;40965;52.368;9.712;2023-05-11T10:04:00;100767.44;;;14.10;100.00
55068;BME280;40965;52.368;9.712;2023-05-11T10:06:42;100770.13;;;14.09;100.00
55068;BME280;40965;52.368;9.712;2023-05-11T10:09:10;100765.75;;;14.07;100.00
55068;BME280;40965;52.368;9.712;2023-05-11T10:11:37;100769.31;;;14.05;100.00
55068;BME280;40965;52.368;9.712;2023-05-11T10:14:11;100765.78;;;14.06;100.00
55068;BME280;40965;52.368;9.712;2023-05-11T10:16:42;100765.00;;;14.01;100.00
55068;BME280;40965;52.368;9.712;2023-05-11T10:19:11;100764.22;;;13.97;100.00
55068;BME280;40965;52.368;9.712;2023-05-11T10:21:38;100758.97;;;13.96;100.00
55068;BME280;40965;52.368;9.712;2023-05-11T10:24:05;100758.81;;;14.03;100.00
55068;BME280;40965;52.368;9.712;2023-05-11T10:26:33;100756.22;;;14.02;100.00
55068;BME280;40965;52.368;9.712;2023-05-11T10:29:00;100762.38;;;14.01;100.00
55068;BME280;40965;52.368;9.712;2023-05-11T10:31:28;100753.78;;;13.93;100.00
55068;BME280;40965;52.368;9.712;2023-05-11T10:33:56;100759.09;;;13.89;100.00
55068;BME280;40965;52.368;9.712;2023-05-11T10:36:23;100752.13;;;13.88;100.00
55068;BME280;40965;52.368;9.712;2023-05-11T10:38:50;100748.63;;;13.88;100.00
55068;BME280;40965;52.368;9.712;2023-05-11T10:41:32;100750.44;;;13.84;100.00
55068;BME280;40965;52.368;9.712;2023-05-11T10:44:19;100761.13;;;13.78;100.00
55068;BME280;40965;52.368;9.712;2023-05-11T10:50:17;100759.59;;;13.65;100.00
55068;BME280;40965;52.368;9.712;2023-05-11T10:56:05;100753.56;;;13.60;100.00
55068;BME280;40965;52.368;9.712;2023-05-11T10:59:15;100753.56;;;13.60;100.00
55068;BME280;40965;52.368;9.712;2023-05-11T11:01:52;100759.69;;;13.62;100.00
55068;BME280;40965;52.368;9.712;2023-05-11T11:04:23;100758.84;;;13.60;100.00
55068;BME280;40965;52.368;9.712;2023-05-11T11:07:04;100758.13;;;13.51;100.00
55068;BME280;40965;52.368;9.712;2023-05-11T11:09:56;100760.97;;;13.40;100.00
55068;BME280;40965;52.368;9.712;2023-05-11T11:12:25;100760.22;;;13.31;100.00
55068;BME280;40965;52.368;9.712;2023-05-11T11:15:02;100762.03;;;13.29;100.00
55068;BME280;40965;52.368;9.712;2023-05-11T11:17:32;100761.16;;;13.30;100.00
55068;BME280;40965;52.368;9.712;2023-05-11T11:20:03;100756.03;;;13.22;100.00
55068;BME280;40965;52.368;9.712;2023-05-11T11:30:24;100760.19;;;13.34;100.00
55068;BME280;40965;52.368;9.712;2023-05-11T11:35:45;100757.63;;;13.29;100.00
55068;BME280;40965;52.368;9.712;2023-05-11T11:38:17;100752.31;;;13.32;100.00
55068;BME280;40965;52.368;9.712;2023-05-11T11:40:45;100754.03;;;13.33;100.00
55068;BME280;40965;52.368;9.712;2023-05-11T11:43:21;100761.00;;;13.37;100.00
55068;BME280;40965;52.368;9.712;2023-05-11T11:45:58;100759.22;;;13.39;100.00
55068;BME280;40965;52.368;9.712;2023-05-11T11:51:05;100767.16;;;13.35;100.00
55068;BME280;40965;52.368;9.712;2023-05-11T11:56:06;100770.72;;;13.34;100.00
55068;BME280;40965;52.368;9.712;2023-05-11T12:06:55;100763.13;;;13.17;100.00
55068;BME280;40965;52.368;9.712;2023-05-11T12:09:23;100767.38;;;13.24;100.00
55068;BME280;40965;52.368;9.712;2023-05-11T12:11:51;100761.25;;;13.23;100.00
55068;BME280;40965;52.368;9.712;2023-05-11T12:14:18;100762.97;;;13.26;100.00
55068;BME280;40965;52.368;9.712;2023-05-11T12:17:05;100759.22;;;13.39;100.00
55068;BME280;40965;52.368;9.712;2023-05-11T12:19:41;100759.00;;;13.52;100.00
55068;BME280;40965;52.368;9.712;2023-05-11T12:22:09;100759.94;;;13.49;100.00
55068;BME280;40965;52.368;9.712;2023-05-11T12:24:38;100754.69;;;13.48;100.00
55068;BME280;40965;52.368;9.712;2023-05-11T12:27:05;100757.28;;;13.51;100.00
55068;BME280;40965;52.368;9.712;2023-05-11T12:29:32;100749.31;;;13.54;100.00
55068;BME280;40965;52.368;9.712;2023-05-11T12:31:59;100753.66;;;13.56;100.00
55068;BME280;40965;52.368;9.712;2023-05-11T12:34:26;100756.28;;;13.56;100.00
55068;BME280;40965;52.368;9.712;2023-05-11T12:36:53;100750.94;;;13.60;100.00
55068;BME280;40965;52.368;9.712;2023-05-11T12:39:22;100753.47;;;13.66;100.00
55068;BME280;40965;52.368;9.712;2023-05-11T12:41:52;100740.84;;;13.82;100.00
55068;BME280;40965;52.368;9.712;2023-05-11T12:44:22;100738.78;;;13.98;100.00
55068;BME280;40965;52.368;9.712;2023-05-11T12:46:50;100739.44;;;14.07;100.00
55068;BME280;40965;52.368;9.712;2023-05-11T12:49:18;100740.19;;;14.13;100.00
55068;BME280;40965;52.368;9.712;2023-05-11T12:51:52;100736.56;;;14.18;100.00
55068;BME280;40965;52.368;9.712;2023-05-11T12:54:32;100744.34;;;14.23;100.00
55068;BME280;40965;52.368;9.712;2023-05-11T12:57:04;100740.59;;;14.33;100.00
55068;BME280;40965;52.368;9.712;2023-05-11T12:59:38;100744.59;;;14.51;100.00
55068;BME280;40965;52.368;9.712;2023-05-11T13:02:20;100728.88;;;14.84;100.00
55068;BME280;40965;52.368;9.712;2023-05-11T13:04:48;100725.53;;;15.12;100.00
55068;BME280;40965;52.368;9.712;2023-05-11T13:07:23;100732.47;;;15.48;100.00
55068;BME280;40965;52.368;9.712;2023-05-11T13:10:00;100726.59;;;15.68;100.00
55068;BME280;40965;52.368;9.712;2023-05-11T13:12:32;100728.91;;;15.80;100.00
55068;BME280;40965;52.368;9.712;2023-05-11T13:15:10;100732.63;;;15.73;100.00
55068;BME280;40965;52.368;9.712;2023-05-11T13:17:38;100727.63;;;15.64;100.00
55068;BME280;40965;52.368;9.712;2023-05-11T13:22:47;100727.44;;;15.38;100.00
55068;BME280;40965;52.368;9.712;2023-05-11T13:25:16;100722.59;;;15.54;100.00
55068;BME280;40965;52.368;9.712;2023-05-11T13:27:44;100718.22;;;15.53;100.00